Terminal Aerodrome Forecast
Issued by NWS

Home | Current Version | Previous Version | Text Only | Print | Product List | Glossary On
Versions: 1 2 3 4 5 6 7 8 9 10 11 12 13 14 15 16 17 18 19 20 21 22
000
FTAK31 PAFA 250641 AAA
TAFASC
TAF AMD
PASC 250641Z 2507/2606 VRB03KT P6SM OVC008
     FM250900 03006KT 3SM -SHSN BR OVC005
     FM251200 04004KT 1/4SM FG OVC003
     FM251800 04006KT 1 1/2SM BR OVC007
     FM252000 04006KT P6SM OVC007=

USA.gov is the U.S. government's official web portal to all federal, state and local government web resources and services.